Bernard, Iowa
Current Conditions -  °F | °C
As of 4:53 AM on Friday 31 Oct 2014 (Local Time) from KDBQ Reporting Station
Few Clouds Few Clouds  
Wind Chill: 19°   Ceiling: Unl
Heat Index: 32°   Visibility: 10mi
Dew Point: 19°   Wind: 25mph
Humidity: 59%   Direction: 350°N
Pressure: 30.22"   Gusts: 36mph
Location:  42.31°N, 90.83°W
Report Text: KDBQ 310953Z AUTO 35022G31KT 10SM FEW040 00/M07 A3022 RMK AO2 PK WND 36032/0917 SLP242 T00001072
Loading
Personal Weather Stations






























Interactive Weather Map
Tropical Storm Tracking
New forecast layout! Learn more

10-Day Weather Forecast

Advertisements
Track Severe Weather on mobile